Time;durP1;ratioP1;P1;durP2;ratioP2;P2;SDS_P1;SDS_P2;PMS_P1;PMS_P2;Temp;Humidity;BMP_temperature;BMP_pressure;BME280_temperature;BME280_humidity;BME280_pressure;Samples;Min_cycle;Max_cycle;Signal;HPM_P1;HPM_P2
2023/06/14 00:01:16;;;;;;;4.60;3.63;;;22.60;66.40;;;;;;4185708;28;20048;-60
2023/06/14 00:03:17;;;;;;;5.57;3.80;;;22.60;66.90;;;;;;4190553;28;20044;-59
2023/06/14 00:05:17;;;;;;;5.00;3.60;;;22.50;67.20;;;;;;4179098;28;20443;-60
2023/06/14 00:07:33;;;;;;;4.65;3.58;;;22.50;66.90;;;;;;4178049;28;20029;-60
2023/06/14 00:09:33;;;;;;;3.70;3.30;;;22.50;66.10;;;;;;4161980;28;20034;-60
2023/06/14 00:11:34;;;;;;;4.30;3.50;;;22.40;65.90;;;;;;4172057;28;20141;-59
2023/06/14 00:13:34;;;;;;;5.95;3.45;;;22.40;65.90;;;;;;4192434;28;20110;-59
2023/06/14 00:15:35;;;;;;;4.88;3.50;;;22.30;65.70;;;;;;4176039;28;20021;-63
2023/06/14 00:17:38;;;;;;;4.82;3.70;;;22.30;65.80;;;;;;4193231;28;20044;-60
2023/06/14 00:19:40;;;;;;;3.80;3.00;;;22.30;66.20;;;;;;4187966;28;20067;-59
2023/06/14 00:21:41;;;;;;;5.57;3.25;;;22.30;67.10;;;;;;4170573;28;20548;-59
2023/06/14 00:23:42;;;;;;;3.97;3.28;;;22.30;69.00;;;;;;4177996;28;20036;-60
2023/06/14 00:25:42;;;;;;;5.78;3.20;;;22.30;67.90;;;;;;4190574;28;20049;-60
2023/06/14 00:27:43;;;;;;;6.93;3.40;;;22.30;66.20;;;;;;4179564;28;20032;-61
2023/06/14 00:29:43;;;;;;;4.15;3.13;;;22.20;65.90;;;;;;4176951;28;20025;-60
2023/06/14 00:31:44;;;;;;;4.13;3.58;;;22.20;66.30;;;;;;4185437;28;20045;-60
2023/06/14 00:33:45;;;;;;;4.43;3.40;;;22.20;68.20;;;;;;4184373;28;20044;-60
2023/06/14 00:35:46;;;;;;;4.90;3.58;;;22.10;67.30;;;;;;4176304;28;20033;-59
2023/06/14 00:37:47;;;;;;;5.90;3.45;;;22.20;67.10;;;;;;4176914;28;20041;-60
2023/06/14 00:39:47;;;;;;;4.97;3.28;;;22.10;67.80;;;;;;4187807;28;20545;-60
2023/06/14 00:41:48;;;;;;;4.05;3.55;;;22.20;67.50;;;;;;4189581;28;20495;-60
2023/06/14 00:43:49;;;;;;;4.15;3.47;;;22.10;67.30;;;;;;4186890;28;20078;-60
2023/06/14 00:45:51;;;;;;;7.30;3.83;;;22.10;68.00;;;;;;4191616;28;20028;-59
2023/06/14 00:47:54;;;;;;;4.38;3.15;;;22.10;66.50;;;;;;4182959;28;20051;-60
2023/06/14 00:49:56;;;;;;;4.53;3.40;;;22.10;66.10;;;;;;4184987;28;20082;-60
2023/06/14 00:51:57;;;;;;;6.25;3.83;;;22.00;66.50;;;;;;4182055;28;20037;-59
2023/06/14 00:53:57;;;;;;;5.50;3.40;;;22.10;65.90;;;;;;4176860;28;20037;-59
2023/06/14 00:55:58;;;;;;;4.07;3.10;;;22.00;65.70;;;;;;4176681;28;20029;-60
2023/06/14 00:57:59;;;;;;;4.32;3.08;;;22.00;65.70;;;;;;4187087;28;20340;-59
2023/06/14 01:00:00;;;;;;;5.90;3.38;;;22.00;65.50;;;;;;4192672;28;20044;-59
2023/06/14 01:02:00;;;;;;;5.80;3.80;;;22.00;65.70;;;;;;4188317;28;20033;-60
2023/06/14 01:04:04;;;;;;;4.28;3.38;;;21.90;65.40;;;;;;4171356;28;20040;-60
2023/06/14 01:06:10;;;;;;;6.13;3.85;;;21.90;65.60;;;;;;4174215;28;20045;-59
2023/06/14 01:08:28;;;;;;;5.72;3.97;;;21.80;65.90;;;;;;4172385;28;20091;-60
2023/06/14 01:10:52;;;;;;;5.40;3.45;;;21.80;66.20;;;;;;4175624;28;20067;-60
2023/06/14 01:13:12;;;;;;;5.15;3.70;;;21.70;66.40;;;;;;4174476;28;20381;-60
2023/06/14 01:15:13;;;;;;;5.85;3.60;;;21.60;66.30;;;;;;4190189;28;20039;-59
2023/06/14 01:17:16;;;;;;;5.78;4.10;;;21.50;66.40;;;;;;4188675;28;20055;-60
2023/06/14 01:19:17;;;;;;;4.55;3.25;;;21.40;67.00;;;;;;4176427;28;20044;-60
2023/06/14 01:21:25;;;;;;;4.72;3.75;;;21.40;67.20;;;;;;4178226;28;20032;-59
2023/06/14 01:23:32;;;;;;;7.80;3.97;;;21.30;67.40;;;;;;4178666;28;20037;-60
2023/06/14 01:25:32;;;;;;;6.43;4.15;;;21.10;67.40;;;;;;4191767;28;20048;-59
2023/06/14 01:27:37;;;;;;;5.68;3.50;;;20.90;68.30;;;;;;4187505;28;20044;-60
2023/06/14 01:29:38;;;;;;;7.05;3.95;;;20.70;68.70;;;;;;4161689;28;20040;-59
2023/06/14 01:31:40;;;;;;;6.47;3.60;;;20.60;69.40;;;;;;4178460;28;20028;-59
2023/06/14 01:33:41;;;;;;;5.53;3.90;;;20.60;69.40;;;;;;4186325;28;20347;-60
2023/06/14 01:35:46;;;;;;;7.40;4.07;;;20.50;69.90;;;;;;4189373;28;20353;-59
2023/06/14 01:37:48;;;;;;;5.63;3.80;;;20.50;69.90;;;;;;4180483;28;20041;-59
2023/06/14 01:39:50;;;;;;;7.88;4.00;;;20.50;69.80;;;;;;4165243;28;20038;-60
2023/06/14 01:41:51;;;;;;;6.25;4.18;;;20.50;69.60;;;;;;4168406;28;20043;-60
2023/06/14 01:43:54;;;;;;;6.35;4.13;;;20.50;69.40;;;;;;4186583;28;20537;-59
2023/06/14 01:45:56;;;;;;;5.35;3.90;;;20.40;69.70;;;;;;4180264;28;20037;-59
2023/06/14 01:47:57;;;;;;;4.05;3.47;;;20.40;69.80;;;;;;4191911;28;20036;-59
2023/06/14 01:49:58;;;;;;;6.90;3.80;;;20.40;70.20;;;;;;4179095;28;20130;-59
2023/06/14 01:51:58;;;;;;;4.28;3.58;;;20.30;70.20;;;;;;4192086;28;20032;-59
2023/06/14 01:54:00;;;;;;;6.68;4.43;;;20.00;70.50;;;;;;4180391;28;20471;-60
2023/06/14 01:56:01;;;;;;;5.20;3.33;;;19.80;71.10;;;;;;4194497;28;20032;-59
2023/06/14 01:58:01;;;;;;;4.63;3.72;;;19.80;71.50;;;;;;4195503;28;20040;-59
2023/06/14 02:00:04;;;;;;;4.78;3.40;;;19.80;71.60;;;;;;4191102;28;20040;-63
2023/06/14 02:02:04;;;;;;;10.25;3.72;;;19.70;71.50;;;;;;4194954;28;20162;-59
2023/06/14 02:04:05;;;;;;;5.95;3.97;;;19.70;71.30;;;;;;4183309;28;20101;-59
2023/06/14 02:06:06;;;;;;;6.15;3.85;;;19.50;71.10;;;;;;4186768;28;20040;-59
2023/06/14 02:08:07;;;;;;;5.90;3.63;;;19.50;71.40;;;;;;4192700;28;20025;-60
2023/06/14 02:10:08;;;;;;;5.22;3.58;;;19.40;71.70;;;;;;4190523;28;20395;-60
2023/06/14 02:12:10;;;;;;;4.88;3.70;;;19.50;71.70;;;;;;4193657;28;20033;-60
2023/06/14 02:14:11;;;;;;;;;;;19.50;71.70;;;;;;4182956;28;20103;-59
2023/06/14 02:16:12;;;;;;;4.35;3.15;;;19.50;72.10;;;;;;4184615;28;20330;-59
2023/06/14 02:18:13;;;;;;;4.60;2.95;;;19.50;72.10;;;;;;4192959;28;20043;-59
2023/06/14 02:20:14;;;;;;;4.60;3.40;;;19.50;72.00;;;;;;4184018;28;20123;-59
2023/06/14 02:22:15;;;;;;;4.72;3.50;;;19.60;72.30;;;;;;4178250;28;20025;-60
2023/06/14 02:24:16;;;;;;;6.45;3.35;;;19.60;71.50;;;;;;4169110;28;20033;-60
2023/06/14 02:26:17;;;;;;;5.18;3.30;;;19.60;71.70;;;;;;4172074;28;20045;-60
2023/06/14 02:28:17;;;;;;;5.60;3.30;;;19.70;71.40;;;;;;4186889;28;20040;-59
2023/06/14 02:30:18;;;;;;;4.10;2.95;;;19.70;71.80;;;;;;4176173;28;20036;-60
2023/06/14 02:32:18;;;;;;;5.55;3.53;;;19.70;71.60;;;;;;4174104;28;20041;-60
2023/06/14 02:34:21;;;;;;;5.95;3.47;;;19.80;71.60;;;;;;4174225;28;20041;-59
2023/06/14 02:36:22;;;;;;;;;;;19.80;70.90;;;;;;4161853;28;20060;-59
2023/06/14 02:38:22;;;;;;;5.35;3.33;;;19.80;70.70;;;;;;4181642;28;19963;-60
2023/06/14 02:40:23;;;;;;;5.22;3.85;;;19.80;70.50;;;;;;4185518;28;20120;-59
2023/06/14 02:42:24;;;;;;;6.13;3.78;;;19.80;70.50;;;;;;4186715;28;20388;-60
2023/06/14 02:44:27;;;;;;;6.63;3.75;;;19.70;70.60;;;;;;4195033;28;20066;-60
2023/06/14 02:46:27;;;;;;;5.32;3.80;;;19.70;72.00;;;;;;4165006;28;20134;-59
2023/06/14 02:48:28;;;;;;;6.50;3.40;;;19.70;71.20;;;;;;4176365;28;20033;-60
2023/06/14 02:50:30;;;;;;;4.47;3.65;;;19.70;71.10;;;;;;4182322;28;20039;-59
2023/06/14 02:52:33;;;;;;;6.45;3.22;;;19.60;70.80;;;;;;4192716;28;20464;-59
2023/06/14 02:54:33;;;;;;;7.57;3.38;;;19.60;70.60;;;;;;4191541;28;20114;-60
2023/06/14 02:56:35;;;;;;;5.18;3.33;;;19.50;71.20;;;;;;4167320;28;20030;-60
2023/06/14 02:58:36;;;;;;;4.03;3.13;;;19.50;71.50;;;;;;4192327;28;20072;-60
2023/06/14 03:00:38;;;;;;;5.70;3.17;;;19.40;71.80;;;;;;4183777;28;20033;-61
2023/06/14 03:02:38;;;;;;;5.70;3.20;;;19.30;71.80;;;;;;4176493;28;20060;-60
2023/06/14 03:04:39;;;;;;;4.90;3.13;;;19.30;72.10;;;;;;4189370;28;20037;-60
2023/06/14 03:06:40;;;;;;;6.10;3.50;;;19.30;71.80;;;;;;4163752;28;20489;-60
2023/06/14 03:08:41;;;;;;;4.10;3.30;;;19.20;71.80;;;;;;4194109;28;20194;-59
2023/06/14 03:10:51;;;;;;;6.03;3.88;;;19.20;72.10;;;;;;4172910;28;20389;-59
2023/06/14 03:12:52;;;;;;;5.47;2.97;;;19.10;72.30;;;;;;4208939;28;20032;-59
2023/06/14 03:14:53;;;;;;;4.20;3.30;;;19.00;72.20;;;;;;4194843;28;20039;-59
2023/06/14 03:16:56;;;;;;;4.70;3.45;;;19.00;72.50;;;;;;4179828;28;20032;-59
2023/06/14 03:18:57;;;;;;;4.80;3.38;;;19.00;72.60;;;;;;4184017;28;20064;-59
2023/06/14 03:20:58;;;;;;;4.90;3.03;;;19.00;72.60;;;;;;4184752;28;20033;-60
2023/06/14 03:23:05;;;;;;;5.60;3.50;;;19.00;72.40;;;;;;4177216;28;20100;-60
2023/06/14 03:25:06;;;;;;;5.55;3.63;;;19.00;72.70;;;;;;4182088;28;20040;-60
2023/06/14 03:27:09;;;;;;;5.38;3.28;;;18.90;72.40;;;;;;4170061;28;20034;-59
2023/06/14 03:29:10;;;;;;;5.60;3.50;;;18.90;72.90;;;;;;4172971;28;20072;-59
2023/06/14 03:31:11;;;;;;;7.95;3.85;;;18.80;72.80;;;;;;4187819;28;20472;-60
2023/06/14 03:33:12;;;;;;;5.97;3.90;;;18.80;73.00;;;;;;4185468;28;20075;-59
2023/06/14 03:35:17;;;;;;;5.60;3.65;;;18.80;73.30;;;;;;4186413;28;20044;-60
2023/06/14 03:37:17;;;;;;;7.20;3.75;;;18.70;73.40;;;;;;4189721;28;20036;-59
2023/06/14 03:39:18;;;;;;;6.63;3.42;;;18.70;73.50;;;;;;4184534;28;20029;-59
2023/06/14 03:41:18;;;;;;;5.13;3.13;;;18.70;73.30;;;;;;4183339;28;20041;-59
2023/06/14 03:43:19;;;;;;;5.78;3.50;;;18.70;73.30;;;;;;4187419;28;20118;-60
2023/06/14 03:45:20;;;;;;;4.95;3.40;;;18.70;73.50;;;;;;4190805;28;20040;-59
2023/06/14 03:47:21;;;;;;;6.78;3.10;;;18.70;73.70;;;;;;4190973;28;20102;-59
2023/06/14 03:49:21;;;;;;;4.57;3.33;;;18.70;73.70;;;;;;4185987;28;20064;-59
2023/06/14 03:51:22;;;;;;;4.90;3.13;;;18.70;73.50;;;;;;4167830;28;20087;-60
2023/06/14 03:53:23;;;;;;;4.80;3.25;;;18.80;73.60;;;;;;4186306;28;20055;-60
2023/06/14 03:55:25;;;;;;;6.25;3.40;;;18.80;73.40;;;;;;4182899;28;20037;-59
2023/06/14 03:57:26;;;;;;;4.88;2.90;;;18.80;73.60;;;;;;4177633;28;20037;-60
2023/06/14 03:59:26;;;;;;;6.03;3.30;;;18.90;74.20;;;;;;4186361;28;20068;-59
2023/06/14 04:01:29;;;;;;;5.82;3.50;;;18.90;73.60;;;;;;4188727;28;20172;-59
2023/06/14 04:03:29;;;;;;;5.75;3.38;;;18.90;73.40;;;;;;4176073;28;20124;-60
2023/06/14 04:05:31;;;;;;;5.00;3.20;;;18.90;74.20;;;;;;4182728;28;21638;-59
2023/06/14 04:07:31;;;;;;;5.05;2.95;;;19.00;74.20;;;;;;4180555;28;20108;-59
2023/06/14 04:09:32;;;;;;;5.22;3.25;;;19.00;74.60;;;;;;4176813;28;20100;-59
2023/06/14 04:11:33;;;;;;;5.97;3.38;;;19.00;75.40;;;;;;4174708;28;20049;-59
2023/06/14 04:13:35;;;;;;;5.40;3.28;;;19.10;75.70;;;;;;4181714;28;20029;-59
2023/06/14 04:15:36;;;;;;;11.57;3.72;;;19.10;76.00;;;;;;4180518;28;20494;-60
2023/06/14 04:17:38;;;;;;;6.00;3.25;;;19.20;76.30;;;;;;4178754;28;20036;-59
2023/06/14 04:19:38;;;;;;;5.45;3.22;;;19.20;76.30;;;;;;4170541;28;20033;-61
2023/06/14 04:21:39;;;;;;;4.38;2.88;;;19.30;75.90;;;;;;4171625;28;20395;-60
2023/06/14 04:23:43;;;;;;;5.93;3.35;;;19.40;76.20;;;;;;4170476;28;20404;-60
2023/06/14 04:25:48;;;;;;;5.72;3.30;;;19.40;76.20;;;;;;4182355;28;20483;-60
2023/06/14 04:27:49;;;;;;;8.70;3.50;;;19.50;75.80;;;;;;4175920;28;20032;-60
2023/06/14 04:29:56;;;;;;;5.95;3.20;;;19.60;76.60;;;;;;4172222;28;20167;-60
2023/06/14 04:31:58;;;;;;;5.30;3.13;;;19.60;75.40;;;;;;4171916;28;20108;-59
2023/06/14 04:33:59;;;;;;;7.30;3.20;;;19.70;75.50;;;;;;4166168;28;20445;-59
2023/06/14 04:36:00;;;;;;;4.88;2.80;;;19.70;75.60;;;;;;4175764;28;20037;-59
2023/06/14 04:38:01;;;;;;;4.50;3.03;;;19.80;75.40;;;;;;4177398;28;20035;-59
2023/06/14 04:40:04;;;;;;;5.72;3.38;;;19.80;75.00;;;;;;4193182;28;20090;-60
2023/06/14 04:42:07;;;;;;;5.03;2.97;;;19.80;74.70;;;;;;4171973;28;20036;-60
2023/06/14 04:44:07;;;;;;;4.85;3.10;;;19.90;74.00;;;;;;4169440;28;20376;-59
2023/06/14 04:46:10;;;;;;;5.38;3.28;;;19.90;73.10;;;;;;4192099;28;20056;-60
2023/06/14 04:48:11;;;;;;;5.10;2.85;;;19.90;73.40;;;;;;4187225;28;20041;-59
2023/06/14 04:50:12;;;;;;;5.78;3.35;;;19.90;73.60;;;;;;4181255;28;20123;-59
2023/06/14 04:52:13;;;;;;;5.10;3.08;;;19.90;73.40;;;;;;4194247;28;20080;-59
2023/06/14 04:54:14;;;;;;;6.03;3.33;;;19.90;73.60;;;;;;4176070;28;20480;-59
2023/06/14 04:56:16;;;;;;;4.40;2.90;;;20.00;74.00;;;;;;4191517;28;20042;-60
2023/06/14 04:58:17;;;;;;;5.03;2.90;;;20.10;74.10;;;;;;4186930;28;20037;-61
2023/06/14 05:00:18;;;;;;;7.18;2.88;;;20.10;74.00;;;;;;4173074;28;20106;-59
2023/06/14 05:02:18;;;;;;;4.70;3.40;;;20.10;73.20;;;;;;4191810;28;20045;-59
2023/06/14 05:04:19;;;;;;;4.03;2.67;;;20.10;73.50;;;;;;4175817;28;20041;-59
2023/06/14 05:06:21;;;;;;;4.50;2.92;;;20.20;73.90;;;;;;4186564;28;20506;-59
2023/06/14 05:08:24;;;;;;;5.18;2.97;;;20.20;75.30;;;;;;4187614;28;20106;-59
2023/06/14 05:10:25;;;;;;;8.60;3.35;;;20.30;75.50;;;;;;4183680;28;20426;-59
2023/06/14 05:12:26;;;;;;;9.30;3.65;;;20.00;73.10;;;;;;4189977;28;20115;-59
2023/06/14 05:14:26;;;;;;;6.93;3.50;;;19.90;73.20;;;;;;4185358;28;20095;-60
2023/06/14 05:16:27;;;;;;;4.97;3.20;;;19.80;74.10;;;;;;4189073;28;20028;-59
2023/06/14 05:18:27;;;;;;;11.75;3.33;;;19.70;74.00;;;;;;4184817;28;20063;-59
2023/06/14 05:20:28;;;;;;;5.47;3.03;;;19.70;74.50;;;;;;4161834;28;20036;-59
2023/06/14 05:22:29;;;;;;;7.80;2.88;;;19.60;71.80;;;;;;4172566;28;20117;-59
2023/06/14 05:24:32;;;;;;;5.38;2.72;;;19.60;71.60;;;;;;4169197;28;20097;-59
2023/06/14 05:26:33;;;;;;;6.22;3.47;;;19.50;72.00;;;;;;4189506;28;20048;-60
2023/06/14 05:28:33;;;;;;;5.57;2.75;;;19.50;72.40;;;;;;4185391;28;20037;-59
2023/06/14 05:30:34;;;;;;;3.92;2.83;;;19.60;72.50;;;;;;4171050;28;20063;-60
2023/06/14 05:32:35;;;;;;;4.80;3.00;;;19.50;72.20;;;;;;4178384;28;20066;-59
2023/06/14 05:34:35;;;;;;;4.05;2.50;;;19.50;71.40;;;;;;4171434;28;20025;-62
2023/06/14 05:36:36;;;;;;;7.20;3.10;;;19.60;71.80;;;;;;4172637;28;20064;-62
2023/06/14 05:38:37;;;;;;;6.40;3.60;;;19.60;71.60;;;;;;4175994;28;20037;-62
2023/06/14 05:40:37;;;;;;;5.45;3.50;;;19.70;71.80;;;;;;4170439;28;20448;-62
2023/06/14 05:42:38;;;;;;;9.25;3.17;;;19.60;70.50;;;;;;4164434;28;20061;-62
2023/06/14 05:44:39;;;;;;;5.75;3.20;;;19.70;71.10;;;;;;4171730;28;20037;-62
2023/06/14 05:46:40;;;;;;;5.90;3.10;;;19.80;70.90;;;;;;4169458;28;20046;-62
2023/06/14 05:48:40;;;;;;;5.43;2.95;;;20.10;70.60;;;;;;4169878;28;20026;-62
2023/06/14 05:50:41;;;;;;;7.22;2.83;;;20.50;69.10;;;;;;4170450;28;20041;-62
2023/06/14 05:52:41;;;;;;;6.05;3.33;;;20.90;68.40;;;;;;4185232;28;20346;-62
2023/06/14 05:54:42;;;;;;;7.70;3.45;;;21.20;67.40;;;;;;4175326;28;20480;-62
2023/06/14 05:56:43;;;;;;;5.45;3.65;;;21.60;67.20;;;;;;4175821;28;20090;-62
2023/06/14 05:58:44;;;;;;;6.97;3.25;;;21.90;65.80;;;;;;4186645;28;20399;-63
2023/06/14 06:00:46;;;;;;;3.70;2.47;;;22.00;64.50;;;;;;4183621;28;20098;-63
2023/06/14 06:02:47;;;;;;;6.60;3.33;;;22.20;64.60;;;;;;4183197;28;20099;-62
2023/06/14 06:04:48;;;;;;;8.48;2.95;;;22.50;63.90;;;;;;4168166;28;20044;-64
2023/06/14 06:06:48;;;;;;;6.88;3.40;;;22.80;63.20;;;;;;4175094;28;20041;-63
2023/06/14 06:08:49;;;;;;;5.82;3.13;;;23.10;61.60;;;;;;4186078;28;20029;-63
2023/06/14 06:10:50;;;;;;;5.90;3.10;;;23.20;61.90;;;;;;4179801;28;20439;-63
2023/06/14 06:12:52;;;;;;;8.40;3.05;;;23.50;61.00;;;;;;4170349;28;20128;-63
2023/06/14 06:14:52;;;;;;;5.07;2.97;;;23.80;61.70;;;;;;4165221;28;20037;-63
2023/06/14 06:16:54;;;;;;;4.47;2.90;;;23.80;61.20;;;;;;4163415;28;20112;-62
2023/06/14 06:18:54;;;;;;;5.60;3.03;;;23.90;59.60;;;;;;4166152;28;20033;-63
2023/06/14 06:20:55;;;;;;;6.63;3.40;;;24.00;59.90;;;;;;4164723;28;20048;-62
2023/06/14 06:22:56;;;;;;;6.63;2.72;;;24.40;60.80;;;;;;4165913;28;20040;-62
2023/06/14 06:24:57;;;;;;;4.75;2.60;;;24.40;58.40;;;;;;4167955;28;20033;-62
2023/06/14 06:26:58;;;;;;;3.83;2.53;;;24.50;58.80;;;;;;4166804;28;20037;-63
2023/06/14 06:28:59;;;;;;;2.72;2.00;;;24.60;58.80;;;;;;4166798;28;20036;-63
2023/06/14 06:30:59;;;;;;;4.43;2.45;;;24.70;58.60;;;;;;4165530;28;20029;-62
2023/06/14 06:33:00;;;;;;;5.95;2.80;;;24.90;58.40;;;;;;4163021;28;20248;-62
2023/06/14 06:35:01;;;;;;;4.38;2.80;;;24.90;57.80;;;;;;4171470;28;20134;-63
2023/06/14 06:37:01;;;;;;;4.40;2.70;;;24.70;57.80;;;;;;4167931;28;20511;-63
2023/06/14 06:39:08;;;;;;;5.55;2.78;;;24.90;57.80;;;;;;4176161;28;20065;-63
2023/06/14 06:41:09;;;;;;;4.32;2.90;;;25.10;58.00;;;;;;4170587;28;20120;-63
2023/06/14 06:43:13;;;;;;;3.67;2.67;;;25.00;58.00;;;;;;4160754;28;20480;-63
2023/06/14 06:45:13;;;;;;;6.05;2.72;;;25.10;57.90;;;;;;4162335;28;20346;-63
2023/06/14 06:47:14;;;;;;;3.83;2.20;;;25.10;57.10;;;;;;4177206;28;20052;-63
2023/06/14 06:49:15;;;;;;;4.50;2.30;;;24.80;56.70;;;;;;4179444;28;20350;-63
2023/06/14 06:51:15;;;;;;;9.80;2.90;;;24.70;57.60;;;;;;4178293;28;20033;-63
2023/06/14 06:53:18;;;;;;;4.13;2.08;;;24.50;58.30;;;;;;4182849;28;20119;-63
2023/06/14 06:55:18;;;;;;;;;;;24.70;58.10;;;;;;4183376;28;20535;-64
2023/06/14 06:57:19;;;;;;;4.20;2.28;;;24.60;58.50;;;;;;4177997;28;19909;-64
2023/06/14 06:59:20;;;;;;;5.15;2.55;;;24.50;58.00;;;;;;4177361;28;20066;-63
2023/06/14 07:01:21;;;;;;;3.88;2.30;;;24.40;57.50;;;;;;4187272;28;20029;-63
2023/06/14 07:03:22;;;;;;;5.68;2.10;;;24.50;58.70;;;;;;4177811;28;20505;-63
2023/06/14 07:05:23;;;;;;;5.05;2.15;;;24.50;58.70;;;;;;4172230;28;20060;-64
2023/06/14 07:07:24;;;;;;;6.72;2.38;;;24.40;58.70;;;;;;4188674;28;20064;-63
2023/06/14 07:09:25;;;;;;;6.28;2.70;;;24.20;58.50;;;;;;4178912;28;20033;-63
2023/06/14 07:11:25;;;;;;;5.18;2.30;;;24.10;58.80;;;;;;4189689;28;20029;-63
2023/06/14 07:13:26;;;;;;;3.42;2.35;;;24.10;58.00;;;;;;4178918;28;20467;-64
2023/06/14 07:15:27;;;;;;;4.68;2.08;;;23.90;58.00;;;;;;4172588;28;20534;-63
2023/06/14 07:17:27;;;;;;;6.35;2.10;;;24.10;58.10;;;;;;4172665;28;20033;-63
2023/06/14 07:19:28;;;;;;;3.28;1.70;;;24.10;57.00;;;;;;4177375;28;20033;-63
2023/06/14 07:21:29;;;;;;;5.75;2.33;;;24.10;58.30;;;;;;4188126;28;20108;-63
2023/06/14 07:23:29;;;;;;;4.28;2.22;;;24.20;57.30;;;;;;4174595;28;20091;-63
2023/06/14 07:25:30;;;;;;;4.20;1.30;;;24.20;58.50;;;;;;4174971;28;20069;-63
2023/06/14 07:27:30;;;;;;;2.28;1.35;;;24.40;58.30;;;;;;4178087;28;20029;-63
2023/06/14 07:29:31;;;;;;;7.45;1.70;;;24.50;56.50;;;;;;4176514;28;20045;-63
2023/06/14 07:31:32;;;;;;;1.98;1.42;;;24.30;56.70;;;;;;4174309;28;20056;-63
2023/06/14 07:33:32;;;;;;;3.72;1.48;;;24.20;56.50;;;;;;4181415;28;20036;-63
2023/06/14 07:35:33;;;;;;;3.88;1.48;;;24.30;56.50;;;;;;4176075;28;20104;-63
2023/06/14 07:37:33;;;;;;;3.85;1.52;;;24.20;55.70;;;;;;4170053;28;20088;-63
2023/06/14 07:39:34;;;;;;;5.50;1.88;;;24.20;56.70;;;;;;4172032;28;20043;-63
2023/06/14 07:41:34;;;;;;;2.05;1.55;;;24.30;56.50;;;;;;4174370;28;20476;-63
2023/06/14 07:43:35;;;;;;;5.60;1.60;;;24.20;55.70;;;;;;4171107;28;20039;-63
2023/06/14 07:45:37;;;;;;;2.78;1.73;;;24.20;56.20;;;;;;4170187;28;20053;-63
2023/06/14 07:47:37;;;;;;;7.60;1.92;;;24.30;55.90;;;;;;4178450;28;20029;-63
2023/06/14 07:49:38;;;;;;;3.33;1.48;;;24.20;56.10;;;;;;4177606;28;20087;-63
2023/06/14 07:51:38;;;;;;;3.40;1.67;;;24.20;56.20;;;;;;4177192;28;22413;-63
2023/06/14 07:53:40;;;;;;;3.58;1.70;;;24.30;56.30;;;;;;4177715;28;20432;-62
2023/06/14 07:55:43;;;;;;;3.40;1.35;;;24.30;56.40;;;;;;4168606;28;20030;-62
2023/06/14 07:57:44;;;;;;;8.70;1.50;;;24.40;56.30;;;;;;4168103;28;20036;-62
2023/06/14 07:59:44;;;;;;;2.67;1.58;;;24.40;56.10;;;;;;4176281;28;20037;-62
2023/06/14 08:01:46;;;;;;;3.17;1.63;;;24.50;55.70;;;;;;4175860;28;20098;-63
2023/06/14 08:03:47;;;;;;;4.43;1.33;;;24.40;55.40;;;;;;4177593;28;20052;-62
2023/06/14 08:05:48;;;;;;;2.75;1.63;;;24.40;55.30;;;;;;4174534;28;20095;-63
2023/06/14 08:07:48;;;;;;;1.70;1.30;;;24.50;56.70;;;;;;4171368;28;20399;-63
2023/06/14 08:09:49;;;;;;;2.83;1.60;;;24.70;55.80;;;;;;4167236;28;20134;-62
2023/06/14 08:11:50;;;;;;;3.42;1.52;;;24.70;54.50;;;;;;4174569;28;20083;-63
2023/06/14 08:13:50;;;;;;;3.00;1.65;;;24.70;54.30;;;;;;4162731;28;20041;-63
2023/06/14 08:15:51;;;;;;;3.97;1.73;;;24.70;54.90;;;;;;4171188;28;20413;-63
2023/06/14 08:17:51;;;;;;;2.60;1.60;;;24.70;55.20;;;;;;4177597;28;20033;-62
2023/06/14 08:19:57;;;;;;;2.72;1.63;;;24.90;55.60;;;;;;4178018;28;20033;-62
2023/06/14 08:21:58;;;;;;;2.90;1.33;;;25.10;55.40;;;;;;4175320;28;20456;-62
2023/06/14 08:23:59;;;;;;;2.92;1.50;;;24.90;55.40;;;;;;4174672;28;20075;-62
2023/06/14 08:26:01;;;;;;;3.00;1.60;;;25.10;56.20;;;;;;4175650;28;20530;-62
2023/06/14 08:28:01;;;;;;;8.27;2.13;;;25.10;55.70;;;;;;4174795;28;20044;-63
2023/06/14 08:30:03;;;;;;;2.72;1.70;;;25.10;55.00;;;;;;4173318;28;20041;-66
2023/06/14 08:32:04;;;;;;;2.35;1.77;;;25.20;56.90;;;;;;4174621;28;20048;-62
2023/06/14 08:34:05;;;;;;;10.38;1.95;;;25.30;55.50;;;;;;4175007;28;20037;-63
2023/06/14 08:36:06;;;;;;;4.75;1.90;;;25.10;55.60;;;;;;4176010;28;20033;-63
2023/06/14 08:38:07;;;;;;;4.38;2.40;;;25.10;56.00;;;;;;4177361;28;20032;-62
2023/06/14 08:40:29;;;;;;;3.50;2.00;;;25.10;56.40;;;;;;4177101;28;20079;-63
2023/06/14 08:42:31;;;;;;;2.33;1.50;;;25.10;57.90;;;;;;4176747;28;20037;-62
2023/06/14 08:44:32;;;;;;;3.03;1.75;;;25.20;56.30;;;;;;4162268;28;20029;-63
2023/06/14 08:46:34;;;;;;;4.38;1.85;;;25.30;55.90;;;;;;4170510;28;20049;-63
2023/06/14 08:48:34;;;;;;;4.15;1.50;;;25.30;55.70;;;;;;4175287;28;20033;-63
2023/06/14 08:50:39;;;;;;;2.58;1.50;;;25.40;57.70;;;;;;4176284;28;20083;-63
2023/06/14 08:52:49;;;;;;;3.55;1.60;;;25.50;57.20;;;;;;4177417;28;20043;-62
2023/06/14 08:54:50;;;;;;;3.95;1.58;;;25.20;56.00;;;;;;4175407;28;20044;-63
2023/06/14 08:56:52;;;;;;;2.75;1.50;;;25.20;56.40;;;;;;4176137;28;20511;-63
2023/06/14 08:58:52;;;;;;;2.67;1.63;;;25.10;55.90;;;;;;4173566;28;20028;-63
2023/06/14 09:00:53;;;;;;;3.28;1.58;;;25.10;56.80;;;;;;4175052;28;20083;-62
2023/06/14 09:02:57;;;;;;;3.05;1.40;;;25.20;57.10;;;;;;4176935;28;20408;-63
2023/06/14 09:04:59;;;;;;;2.05;1.50;;;25.10;56.50;;;;;;4162784;28;20103;-63
2023/06/14 09:07:00;;;;;;;3.25;1.50;;;25.30;59.80;;;;;;4159896;28;20038;-63
2023/06/14 09:09:02;;;;;;;4.25;1.58;;;25.40;60.20;;;;;;4166520;28;20044;-63
2023/06/14 09:11:02;;;;;;;5.72;1.60;;;25.60;58.10;;;;;;4176327;28;20116;-62
2023/06/14 09:13:04;;;;;;;1.70;1.40;;;25.60;59.10;;;;;;4175739;28;20495;-62
2023/06/14 09:15:06;;;;;;;2.28;1.33;;;25.80;58.70;;;;;;4175307;28;20039;-64
2023/06/14 09:17:06;;;;;;;1.88;1.40;;;26.10;59.10;;;;;;4174496;28;20075;-63
2023/06/14 09:19:08;;;;;;;2.60;1.38;;;26.20;56.10;;;;;;4176168;28;20029;-62
2023/06/14 09:21:08;;;;;;;2.55;1.30;;;25.80;54.80;;;;;;4175901;28;20065;-62
2023/06/14 09:23:09;;;;;;;3.05;1.55;;;25.50;54.90;;;;;;4177251;28;20037;-62
2023/06/14 09:25:10;;;;;;;3.60;1.10;;;25.40;55.20;;;;;;4173537;28;20120;-64
2023/06/14 09:27:15;;;;;;;1.48;1.20;;;25.50;56.40;;;;;;4176363;28;20040;-63
2023/06/14 09:29:17;;;;;;;1.58;1.42;;;25.40;57.30;;;;;;4176181;28;20041;-63
2023/06/14 09:31:19;;;;;;;2.47;1.50;;;25.50;62.10;;;;;;4171731;28;20037;-63
2023/06/14 09:33:20;;;;;;;10.60;1.60;;;25.70;62.30;;;;;;4176565;28;20037;-67
2023/06/14 09:35:21;;;;;;;2.17;1.50;;;25.90;59.00;;;;;;4175404;28;20040;-64
2023/06/14 09:37:29;;;;;;;3.90;1.48;;;25.90;55.60;;;;;;4177050;28;20040;-64
2023/06/14 09:39:30;;;;;;;6.10;1.50;;;25.40;55.30;;;;;;4172816;28;20084;-63
2023/06/14 09:41:39;;;;;;;1.90;1.70;;;25.20;56.60;;;;;;4158903;28;20037;-62
2023/06/14 09:43:40;;;;;;;2.58;1.33;;;25.10;56.80;;;;;;4160565;28;20037;-63
2023/06/14 09:45:40;;;;;;;2.78;1.15;;;25.00;57.20;;;;;;4172155;28;20084;-63
2023/06/14 09:47:43;;;;;;;2.28;1.30;;;25.00;57.10;;;;;;4174080;28;20049;-62
2023/06/14 09:49:44;;;;;;;2.15;1.20;;;25.10;58.00;;;;;;4176664;28;20037;-62
2023/06/14 09:51:49;;;;;;;3.55;1.38;;;25.20;58.40;;;;;;4175817;28;20029;-63
2023/06/14 09:53:51;;;;;;;7.85;1.80;;;25.30;60.30;;;;;;4177104;28;20029;-63
2023/06/14 09:55:54;;;;;;;2.67;1.65;;;25.40;56.60;;;;;;4163105;28;20072;-64
2023/06/14 09:57:57;;;;;;;4.03;1.30;;;25.20;56.50;;;;;;4170671;28;20046;-62
2023/06/14 10:00:00;;;;;;;3.90;1.67;;;25.00;56.30;;;;;;4178266;28;20029;-63
2023/06/14 10:02:05;;;;;;;;;;;25.20;57.30;;;;;;4177142;28;20095;-63
2023/06/14 10:04:06;;;;;;;5.15;2.00;;;25.40;57.50;;;;;;4180095;28;19947;-63
2023/06/14 10:06:08;;;;;;;2.53;1.38;;;25.10;56.00;;;;;;4179129;28;20048;-63
2023/06/14 10:08:12;;;;;;;4.55;1.75;;;25.00;57.00;;;;;;4178557;28;20041;-63
2023/06/14 10:10:13;;;;;;;2.25;1.40;;;24.70;56.50;;;;;;4178902;28;20040;-63
2023/06/14 10:12:20;;;;;;;1.63;1.40;;;25.00;58.30;;;;;;4164856;28;20038;-62
2023/06/14 10:14:21;;;;;;;3.38;1.60;;;25.10;57.10;;;;;;4162976;28;20038;-63
2023/06/14 10:17:00;;;;;;;1.77;1.20;;;25.10;57.80;;;;;;4171274;28;20490;-63
2023/06/14 10:19:21;;;;;;;1.98;1.42;;;25.10;56.10;;;;;;4179209;28;20029;-63
2023/06/14 10:21:28;;;;;;;2.45;1.33;;;25.20;56.80;;;;;;4172121;28;20076;-63
2023/06/14 10:23:30;;;;;;;1.88;1.35;;;25.30;56.70;;;;;;4163496;28;20042;-63
2023/06/14 10:25:31;;;;;;;1.30;1.15;;;25.20;55.90;;;;;;4161973;28;20049;-63
2023/06/14 10:27:32;;;;;;;2.05;1.40;;;25.00;55.80;;;;;;4177855;28;20025;-63
2023/06/14 10:29:33;;;;;;;2.35;1.27;;;24.90;55.70;;;;;;4178829;28;20061;-62
2023/06/14 10:31:44;;;;;;;1.30;1.20;;;24.80;56.20;;;;;;4177202;28;20091;-63
2023/06/14 10:33:56;;;;;;;3.63;1.20;;;24.90;56.60;;;;;;4178829;28;20950;-62
2023/06/14 10:36:07;;;;;;;;;;;24.90;56.10;;;;;;4176992;28;20037;-63